Time;durP1;ratioP1;P1;durP2;ratioP2;P2;SDS_P1;SDS_P2;PMS_P1;PMS_P2;Temp;Humidity;BMP_temperature;BMP_pressure;BME280_temperature;BME280_humidity;BME280_pressure;Samples;Min_cycle;Max_cycle;Signal;HPM_P1;HPM_P2
2021/04/26 00:02:05;;;;;;;9.50;2.28;;;9.60;58.60;;;;;;5036280;28;20685;-73
2021/04/26 00:04:32;;;;;;;3.35;2.40;;;9.60;58.70;;;;;;5036578;28;20209;-73
2021/04/26 00:06:58;;;;;;;4.57;2.40;;;9.60;59.40;;;;;;5036136;28;20773;-73
2021/04/26 00:09:24;;;;;;;4.47;2.70;;;9.60;59.50;;;;;;5036379;28;20204;-73
2021/04/26 00:11:51;;;;;;;4.72;2.42;;;9.50;59.20;;;;;;5036431;28;20670;-73
2021/04/26 00:14:17;;;;;;;5.70;2.70;;;9.50;59.80;;;;;;5036426;28;20295;-72
2021/04/26 00:16:44;;;;;;;2.90;2.55;;;9.50;59.50;;;;;;5036123;28;20231;-72
2021/04/26 00:19:11;;;;;;;9.27;2.92;;;9.40;59.30;;;;;;5036300;28;20294;-73
2021/04/26 00:21:38;;;;;;;3.80;2.78;;;9.50;59.70;;;;;;5036115;28;20299;-73
2021/04/26 00:24:06;;;;;;;4.05;2.53;;;9.60;59.60;;;;;;5036617;28;20694;-73
2021/04/26 00:26:32;;;;;;;5.85;2.38;;;9.50;60.20;;;;;;5035708;28;20208;-73
2021/04/26 00:28:59;;;;;;;2.70;2.38;;;9.40;61.00;;;;;;5035865;28;20200;-72
2021/04/26 00:31:25;;;;;;;4.65;2.85;;;9.30;60.40;;;;;;5035778;28;20204;-73
2021/04/26 00:33:52;;;;;;;3.05;2.30;;;9.10;61.40;;;;;;5035973;28;20617;-73
2021/04/26 00:36:18;;;;;;;4.57;3.13;;;8.80;61.50;;;;;;5035599;28;20204;-72
2021/04/26 00:38:45;;;;;;;4.25;2.50;;;8.70;63.30;;;;;;5035945;28;20242;-72
2021/04/26 00:41:11;;;;;;;3.95;2.35;;;8.70;63.70;;;;;;5035694;28;20315;-72
2021/04/26 00:43:37;;;;;;;4.68;3.00;;;8.60;64.70;;;;;;5035483;28;20232;-72
2021/04/26 00:46:04;;;;;;;4.13;3.72;;;8.70;64.90;;;;;;5035321;28;20290;-72
2021/04/26 00:48:30;;;;;;;5.53;3.47;;;8.90;65.00;;;;;;5035604;28;20212;-73
2021/04/26 00:50:57;;;;;;;6.15;3.40;;;8.90;64.50;;;;;;5035540;28;20299;-73
2021/04/26 00:53:24;;;;;;;5.90;3.50;;;8.90;65.40;;;;;;5035312;28;20777;-73
2021/04/26 00:55:50;;;;;;;4.82;3.17;;;8.90;65.10;;;;;;5035241;28;20295;-73
2021/04/26 00:58:17;;;;;;;4.03;3.50;;;8.90;65.50;;;;;;5035494;28;20295;-72
2021/04/26 01:00:43;;;;;;;4.30;3.38;;;8.90;65.40;;;;;;5035346;28;20224;-72
2021/04/26 01:03:09;;;;;;;5.00;3.22;;;8.80;65.10;;;;;;5035181;28;20224;-72
2021/04/26 01:05:36;;;;;;;4.80;3.55;;;8.80;66.00;;;;;;5035216;28;20211;-72
2021/04/26 01:08:05;;;;;;;4.75;3.30;;;8.90;65.80;;;;;;5035090;28;20211;-72
2021/04/26 01:10:34;;;;;;;6.05;4.00;;;9.00;66.30;;;;;;5035092;28;20200;-72
2021/04/26 01:13:43;;;;;;;5.50;3.60;;;9.10;66.10;;;;;;5034879;28;20781;-73
2021/04/26 01:16:18;;;;;;;7.00;4.45;;;9.20;65.60;;;;;;4954640;29;20220;-72
2021/04/26 01:18:55;;;;;;;4.20;2.80;;;9.30;66.10;;;;;;4954922;29;20238;-73
2021/04/26 01:21:44;;;;;;;7.00;3.80;;;9.40;66.20;;;;;;5005871;28;20319;-72
2021/04/26 01:24:47;;;;;;;4.13;3.50;;;9.50;65.80;;;;;;5034715;28;20234;-73
2021/04/26 01:27:23;;;;;;;5.22;3.53;;;9.50;65.60;;;;;;5034807;28;20213;-73
2021/04/26 01:30:05;;;;;;;5.32;3.65;;;9.60;65.10;;;;;;5034937;28;20620;-73
2021/04/26 01:32:37;;;;;;;4.85;3.78;;;9.40;65.10;;;;;;5034432;28;20281;-72
2021/04/26 01:35:05;;;;;;;4.90;3.65;;;9.30;66.90;;;;;;5034807;28;20215;-72
2021/04/26 01:37:35;;;;;;;5.40;4.30;;;9.20;67.00;;;;;;5034568;28;20562;-73
2021/04/26 01:40:04;;;;;;;6.65;4.32;;;9.00;67.10;;;;;;5034606;28;20594;-72
2021/04/26 01:42:33;;;;;;;6.20;3.95;;;9.00;68.00;;;;;;5034503;28;20652;-72
2021/04/26 01:45:01;;;;;;;5.28;4.55;;;9.00;68.50;;;;;;5034584;28;20204;-73
2021/04/26 01:47:29;;;;;;;6.90;4.63;;;8.90;69.20;;;;;;5034385;28;20299;-72
2021/04/26 01:49:58;;;;;;;6.72;4.15;;;8.80;69.70;;;;;;5034504;28;20309;-72
2021/04/26 01:52:26;;;;;;;6.70;4.43;;;8.60;69.90;;;;;;5034340;28;20220;-72
2021/04/26 01:54:53;;;;;;;4.82;4.03;;;8.60;71.40;;;;;;5034718;28;20214;-72
2021/04/26 01:57:21;;;;;;;5.47;3.78;;;8.70;71.40;;;;;;5033710;28;20204;-72
2021/04/26 01:59:48;;;;;;;7.30;4.32;;;8.80;70.70;;;;;;5034196;28;20224;-72
2021/04/26 02:02:16;;;;;;;7.75;4.38;;;8.80;70.80;;;;;;5034246;28;20314;-72
2021/04/26 02:04:43;;;;;;;6.43;4.25;;;8.90;71.10;;;;;;5034321;28;20203;-72
2021/04/26 02:07:11;;;;;;;8.07;4.68;;;8.80;71.40;;;;;;5034071;28;20296;-72
2021/04/26 02:09:39;;;;;;;5.18;4.25;;;8.70;71.80;;;;;;5034158;28;20298;-72
2021/04/26 02:12:08;;;;;;;7.18;4.78;;;8.70;71.80;;;;;;5034050;28;20204;-73
2021/04/26 02:14:35;;;;;;;8.15;4.35;;;8.50;71.80;;;;;;5034133;28;20203;-72
2021/04/26 02:17:03;;;;;;;5.10;4.28;;;8.40;73.00;;;;;;5033680;28;20298;-72
2021/04/26 02:19:29;;;;;;;5.30;4.25;;;8.50;73.90;;;;;;5033973;28;20204;-72
2021/04/26 02:21:56;;;;;;;6.90;4.50;;;8.50;73.90;;;;;;5033878;28;20569;-72
2021/04/26 02:24:24;;;;;;;9.02;4.85;;;8.50;73.90;;;;;;5034018;28;20294;-72
2021/04/26 02:26:51;;;;;;;7.25;5.03;;;8.50;74.20;;;;;;5033559;28;20206;-72
2021/04/26 02:29:17;;;;;;;6.95;4.32;;;8.60;74.00;;;;;;5033857;28;20205;-72
2021/04/26 02:31:49;;;;;;;6.03;4.68;;;8.50;73.90;;;;;;5033711;28;20215;-73
2021/04/26 02:34:20;;;;;;;6.10;5.03;;;8.60;74.50;;;;;;5033839;28;20555;-73
2021/04/26 02:36:51;;;;;;;5.63;4.78;;;8.40;74.50;;;;;;5033345;28;20303;-72
2021/04/26 02:39:18;;;;;;;13.48;4.78;;;8.30;75.40;;;;;;5033697;28;20299;-73
2021/04/26 02:41:47;;;;;;;12.60;4.97;;;8.30;75.80;;;;;;5033651;28;20206;-72
2021/04/26 02:44:17;;;;;;;6.68;5.00;;;8.30;76.20;;;;;;5033650;28;20232;-72
2021/04/26 02:46:44;;;;;;;9.60;5.07;;;8.30;76.60;;;;;;5033955;28;20226;-72
2021/04/26 02:49:11;;;;;;;9.88;5.05;;;8.40;76.20;;;;;;5033527;28;20334;-73
2021/04/26 02:51:38;;;;;;;7.50;4.75;;;8.40;76.30;;;;;;5033521;28;20265;-72
2021/04/26 02:54:07;;;;;;;7.25;5.38;;;8.40;76.50;;;;;;5033216;28;20228;-73
2021/04/26 02:56:39;;;;;;;6.50;4.80;;;8.40;76.80;;;;;;5033109;28;20291;-72
2021/04/26 02:59:08;;;;;;;8.02;5.00;;;8.40;77.00;;;;;;5033532;28;20265;-72
2021/04/26 03:01:36;;;;;;;9.70;5.28;;;8.30;76.80;;;;;;5033277;28;20314;-72
2021/04/26 03:04:05;;;;;;;9.60;6.45;;;8.30;77.20;;;;;;5033184;28;20833;-72
2021/04/26 03:06:32;;;;;;;7.32;5.10;;;8.30;77.50;;;;;;5033121;28;20212;-74
2021/04/26 03:08:58;;;;;;;7.72;5.13;;;8.20;77.20;;;;;;5034321;28;20253;-74
2021/04/26 03:11:26;;;;;;;11.73;6.30;;;8.20;77.80;;;;;;5037526;28;20286;-74
2021/04/26 03:13:53;;;;;;;6.90;5.50;;;8.20;77.80;;;;;;5037459;28;20315;-74
2021/04/26 03:16:21;;;;;;;6.50;4.50;;;8.20;77.80;;;;;;5037014;28;20203;-74
2021/04/26 03:18:48;;;;;;;8.35;5.47;;;8.00;78.20;;;;;;5037290;28;20291;-74
2021/04/26 03:21:15;;;;;;;5.97;4.82;;;7.70;78.20;;;;;;5037210;28;20297;-74
2021/04/26 03:23:43;;;;;;;6.22;4.72;;;7.70;79.60;;;;;;5036957;28;20310;-74
2021/04/26 03:26:10;;;;;;;7.53;5.50;;;7.70;80.10;;;;;;5036925;28;20203;-74
2021/04/26 03:28:40;;;;;;;6.35;5.10;;;7.80;80.20;;;;;;5037175;28;20212;-74
2021/04/26 03:31:07;;;;;;;6.55;4.93;;;7.70;81.10;;;;;;5037145;28;20569;-74
2021/04/26 03:33:36;;;;;;;7.03;5.20;;;7.50;80.70;;;;;;5036718;28;20648;-74
2021/04/26 03:36:05;;;;;;;9.45;5.68;;;7.50;81.20;;;;;;5036885;28;20617;-74
2021/04/26 03:38:32;;;;;;;10.43;6.07;;;7.60;79.70;;;;;;5036772;28;20215;-73
2021/04/26 03:40:59;;;;;;;9.45;5.65;;;7.50;79.70;;;;;;5036846;28;20224;-74
2021/04/26 03:43:27;;;;;;;7.18;6.03;;;7.40;79.50;;;;;;5036672;28;20224;-73
2021/04/26 03:45:56;;;;;;;8.85;5.95;;;7.20;80.10;;;;;;5036564;28;20239;-73
2021/04/26 03:48:22;;;;;;;8.65;5.50;;;7.00;81.20;;;;;;5036862;28;20594;-73
2021/04/26 03:50:49;;;;;;;7.13;5.03;;;6.90;82.10;;;;;;5036777;28;20283;-73
2021/04/26 03:53:16;;;;;;;7.85;5.15;;;6.90;81.70;;;;;;5036751;28;20224;-74
2021/04/26 03:55:43;;;;;;;9.32;5.40;;;6.80;81.80;;;;;;5036542;28;20569;-73
2021/04/26 03:58:09;;;;;;;10.30;5.22;;;6.80;81.80;;;;;;5036581;28;20692;-73
2021/04/26 04:00:35;;;;;;;7.88;5.30;;;7.00;82.00;;;;;;5036459;28;20224;-73
2021/04/26 04:03:05;;;;;;;6.85;5.70;;;7.00;82.90;;;;;;5036562;28;20310;-73
2021/04/26 04:05:31;;;;;;;7.45;4.65;;;7.10;82.90;;;;;;5036344;28;20211;-74
2021/04/26 04:07:59;;;;;;;10.45;5.43;;;7.20;82.20;;;;;;5036456;28;20239;-74
2021/04/26 04:10:25;;;;;;;8.73;4.97;;;7.20;81.30;;;;;;5036325;28;20339;-73
2021/04/26 04:12:52;;;;;;;9.85;5.15;;;7.20;81.50;;;;;;5036316;28;20224;-73
2021/04/26 04:15:18;;;;;;;8.10;6.35;;;7.20;82.10;;;;;;5036042;28;20218;-73
2021/04/26 04:17:44;;;;;;;5.80;5.15;;;7.00;80.30;;;;;;5036083;28;20222;-73
2021/04/26 04:20:12;;;;;;;5.93;4.82;;;6.90;80.90;;;;;;5035607;28;20649;-73
2021/04/26 04:22:39;;;;;;;9.05;4.82;;;6.80;82.00;;;;;;5036055;28;20778;-73
2021/04/26 04:25:08;;;;;;;5.60;4.70;;;6.80;81.50;;;;;;5036191;28;20585;-73
2021/04/26 04:27:35;;;;;;;9.40;5.07;;;6.80;81.50;;;;;;5035832;28;20250;-73
2021/04/26 04:30:02;;;;;;;6.95;4.75;;;6.70;81.90;;;;;;5035808;28;20239;-73
2021/04/26 04:32:29;;;;;;;6.68;5.05;;;6.60;82.10;;;;;;5035939;28;20318;-74
2021/04/26 04:34:55;;;;;;;6.30;4.57;;;6.50;82.50;;;;;;5036055;28;20313;-73
2021/04/26 04:37:21;;;;;;;8.10;4.30;;;6.40;82.60;;;;;;5035638;28;20204;-73
2021/04/26 04:39:47;;;;;;;12.18;5.00;;;6.30;84.30;;;;;;5035818;28;20226;-73
2021/04/26 04:42:15;;;;;;;7.97;4.97;;;6.20;84.90;;;;;;5035694;28;20310;-73
2021/04/26 04:44:41;;;;;;;5.80;4.88;;;6.20;85.30;;;;;;5035834;28;20305;-73
2021/04/26 04:47:08;;;;;;;6.63;4.60;;;6.40;84.40;;;;;;5035337;28;20291;-73
2021/04/26 04:49:35;;;;;;;6.80;5.00;;;6.70;83.30;;;;;;5035687;28;20204;-73
2021/04/26 04:52:01;;;;;;;6.57;4.75;;;6.80;82.20;;;;;;5035549;28;20290;-73
2021/04/26 04:54:27;;;;;;;10.40;5.20;;;6.70;81.20;;;;;;5035657;28;20622;-74
2021/04/26 04:56:54;;;;;;;7.35;5.03;;;6.70;81.10;;;;;;5035184;28;20215;-73
2021/04/26 04:59:21;;;;;;;7.32;5.40;;;6.70;81.40;;;;;;5035528;28;20291;-73
2021/04/26 05:01:48;;;;;;;9.50;4.85;;;6.70;82.00;;;;;;5035253;28;20314;-73
2021/04/26 05:04:14;;;;;;;6.78;4.85;;;6.70;82.00;;;;;;5035434;28;20221;-72
2021/04/26 05:06:41;;;;;;;8.15;5.20;;;6.80;82.90;;;;;;5035040;28;20231;-72
2021/04/26 05:09:08;;;;;;;5.00;4.40;;;6.90;81.90;;;;;;5035322;28;20329;-73
2021/04/26 05:11:34;;;;;;;10.77;5.75;;;6.90;80.90;;;;;;5035268;28;20196;-73
2021/04/26 05:14:01;;;;;;;8.55;5.03;;;6.90;80.60;;;;;;5034941;28;20315;-73
2021/04/26 05:16:29;;;;;;;9.60;5.15;;;6.90;81.80;;;;;;5035017;28;20208;-73
2021/04/26 05:18:59;;;;;;;10.85;5.30;;;6.90;81.80;;;;;;5035141;28;20230;-73
2021/04/26 05:21:26;;;;;;;7.00;4.80;;;6.90;82.80;;;;;;5035052;28;20230;-73
2021/04/26 05:23:52;;;;;;;10.27;6.07;;;6.80;83.90;;;;;;5034988;28;20310;-73
2021/04/26 05:26:18;;;;;;;9.82;5.65;;;6.80;84.20;;;;;;5034596;28;20261;-73
2021/04/26 05:28:45;;;;;;;7.40;5.50;;;6.70;86.00;;;;;;5034979;28;20203;-73
2021/04/26 05:31:11;;;;;;;8.40;4.90;;;6.60;85.30;;;;;;5034454;28;20227;-73
2021/04/26 05:33:38;;;;;;;8.48;5.00;;;6.90;86.10;;;;;;5034387;28;20319;-73
2021/04/26 05:36:05;;;;;;;8.45;5.50;;;6.90;83.00;;;;;;5034471;28;20300;-73
2021/04/26 05:38:31;;;;;;;8.43;5.05;;;6.80;81.80;;;;;;5034697;28;20291;-73
2021/04/26 05:40:58;;;;;;;9.73;5.85;;;6.80;81.50;;;;;;5034425;28;20701;-73
2021/04/26 05:43:24;;;;;;;5.97;4.85;;;6.90;81.40;;;;;;5034712;28;20224;-73
2021/04/26 05:45:51;;;;;;;5.75;4.85;;;6.80;81.10;;;;;;5034448;28;20206;-73
2021/04/26 05:48:17;;;;;;;7.50;5.45;;;6.80;82.50;;;;;;5034595;28;20257;-73
2021/04/26 05:50:44;;;;;;;6.70;4.97;;;6.90;82.90;;;;;;5034553;28;20287;-73
2021/04/26 05:53:11;;;;;;;11.38;5.05;;;6.90;80.60;;;;;;5034087;28;20490;-73
2021/04/26 05:55:37;;;;;;;7.35;5.05;;;6.90;80.40;;;;;;5034287;28;20208;-73
2021/04/26 05:58:03;;;;;;;7.50;5.25;;;6.80;79.80;;;;;;5034255;28;20210;-73
2021/04/26 06:00:30;;;;;;;7.82;5.38;;;6.90;80.20;;;;;;5034118;28;20265;-73
2021/04/26 06:02:56;;;;;;;9.85;5.07;;;6.90;80.20;;;;;;5034552;28;20327;-73
2021/04/26 06:05:23;;;;;;;8.65;5.40;;;6.90;80.30;;;;;;5034197;28;20362;-73
2021/04/26 06:07:50;;;;;;;11.23;5.20;;;6.90;80.60;;;;;;5034314;28;20291;-73
2021/04/26 06:10:16;;;;;;;10.00;5.85;;;6.90;80.40;;;;;;5034556;28;20227;-73
2021/04/26 06:12:43;;;;;;;7.85;5.00;;;6.90;79.90;;;;;;5034687;28;20224;-73
2021/04/26 06:15:10;;;;;;;7.43;5.70;;;7.00;80.10;;;;;;5034377;28;20230;-73
2021/04/26 06:17:36;;;;;;;6.65;5.40;;;6.90;79.50;;;;;;5033816;28;20208;-73
2021/04/26 06:20:03;;;;;;;10.05;5.72;;;6.90;79.50;;;;;;5033885;28;20674;-73
2021/04/26 06:22:30;;;;;;;7.85;5.22;;;6.90;79.20;;;;;;5033650;28;20756;-73
2021/04/26 06:24:57;;;;;;;8.90;5.63;;;7.10;79.50;;;;;;5034066;28;20365;-73
2021/04/26 06:27:23;;;;;;;8.45;5.97;;;7.20;79.30;;;;;;5033749;28;20628;-73
2021/04/26 06:29:50;;;;;;;5.05;4.55;;;7.30;78.90;;;;;;5034009;28;20290;-73
2021/04/26 06:32:16;;;;;;;10.15;5.80;;;7.30;80.00;;;;;;5033594;28;20322;-73
2021/04/26 06:34:42;;;;;;;6.75;5.47;;;7.40;79.40;;;;;;5033701;28;20741;-73
2021/04/26 06:37:09;;;;;;;8.35;5.97;;;7.50;78.60;;;;;;5034132;28;20305;-73
2021/04/26 06:39:35;;;;;;;13.35;5.80;;;7.50;78.90;;;;;;5033791;28;20748;-72
2021/04/26 06:42:02;;;;;;;8.77;5.32;;;7.40;78.40;;;;;;5033520;28;20643;-72
2021/04/26 06:44:29;;;;;;;10.07;6.63;;;7.50;79.40;;;;;;5033534;28;20298;-73
2021/04/26 06:46:55;;;;;;;11.95;5.82;;;7.50;78.70;;;;;;5033335;28;20290;-73
2021/04/26 06:49:21;;;;;;;7.43;5.35;;;7.50;79.00;;;;;;5033525;28;20684;-73
2021/04/26 06:51:48;;;;;;;9.82;6.32;;;7.50;80.60;;;;;;5033356;28;20231;-73
2021/04/26 06:54:14;;;;;;;8.05;5.50;;;7.70;79.30;;;;;;5033627;28;20579;-73
2021/04/26 06:56:41;;;;;;;9.02;5.57;;;7.80;78.60;;;;;;5033258;28;20725;-72
2021/04/26 06:59:09;;;;;;;8.35;5.47;;;7.90;77.60;;;;;;5033498;28;20299;-73
2021/04/26 07:01:35;;;;;;;10.10;5.78;;;7.90;76.50;;;;;;5033392;28;20221;-73
2021/04/26 07:04:02;;;;;;;7.38;5.10;;;8.00;76.00;;;;;;5033822;28;20224;-73
2021/04/26 07:06:28;;;;;;;6.95;5.45;;;8.10;74.50;;;;;;5033116;28;20283;-73
2021/04/26 07:08:54;;;;;;;7.05;4.80;;;8.10;75.70;;;;;;5033251;28;20663;-73
2021/04/26 07:11:21;;;;;;;7.75;5.55;;;8.20;74.70;;;;;;5033377;28;20202;-73
2021/04/26 07:13:47;;;;;;;7.05;5.13;;;8.20;74.50;;;;;;5033402;28;20263;-73
2021/04/26 07:16:14;;;;;;;7.22;5.60;;;8.20;74.90;;;;;;5032952;28;20290;-73
2021/04/26 07:18:40;;;;;;;7.60;5.93;;;8.40;73.90;;;;;;5033371;28;20678;-73
2021/04/26 07:21:07;;;;;;;9.38;6.05;;;8.50;74.20;;;;;;5033242;28;20285;-73
2021/04/26 07:23:33;;;;;;;10.65;5.25;;;8.50;74.00;;;;;;5033311;28;20226;-73
2021/04/26 07:26:00;;;;;;;6.38;5.20;;;8.60;74.10;;;;;;5033119;28;20570;-73
2021/04/26 07:28:27;;;;;;;7.93;5.95;;;8.80;73.20;;;;;;5033286;28;20208;-73
2021/04/26 07:30:53;;;;;;;6.85;5.35;;;8.80;72.10;;;;;;5032977;28;20230;-73
2021/04/26 07:33:20;;;;;;;8.70;5.88;;;8.80;71.60;;;;;;5032935;28;20236;-73
2021/04/26 07:35:47;;;;;;;7.65;5.88;;;8.90;71.90;;;;;;5032821;28;20208;-73
2021/04/26 07:38:13;;;;;;;7.00;5.47;;;9.00;72.00;;;;;;5033074;28;20239;-73
2021/04/26 07:40:39;;;;;;;8.95;6.20;;;9.10;70.60;;;;;;5033105;28;20277;-73
2021/04/26 07:43:07;;;;;;;6.97;5.47;;;9.00;70.60;;;;;;5033106;28;20321;-73
2021/04/26 07:45:33;;;;;;;20.65;15.43;;;9.10;72.20;;;;;;5032621;28;20250;-73
2021/04/26 07:48:00;;;;;;;9.68;6.45;;;9.20;72.60;;;;;;5032958;28;20200;-73
2021/04/26 07:50:28;;;;;;;8.50;5.60;;;9.50;71.70;;;;;;5033094;28;20667;-73
2021/04/26 07:52:54;;;;;;;8.30;6.53;;;9.70;71.10;;;;;;5033009;28;20660;-73
2021/04/26 07:55:21;;;;;;;7.00;5.55;;;9.80;69.60;;;;;;5034502;28;20207;-73
2021/04/26 07:57:47;;;;;;;8.70;6.13;;;10.10;68.10;;;;;;5036726;28;20293;-73
2021/04/26 08:00:14;;;;;;;8.65;6.10;;;10.40;66.60;;;;;;5036474;28;20226;-74
2021/04/26 08:02:41;;;;;;;8.18;6.30;;;10.60;65.90;;;;;;5036320;28;20710;-73
2021/04/26 08:05:08;;;;;;;8.68;6.68;;;10.80;64.40;;;;;;5036561;28;20204;-73
2021/04/26 08:07:35;;;;;;;7.13;5.55;;;10.90;63.50;;;;;;5036336;28;20204;-73
2021/04/26 08:10:01;;;;;;;7.47;5.43;;;11.50;63.50;;;;;;5036481;28;20291;-73
2021/04/26 08:12:27;;;;;;;6.70;5.68;;;12.90;61.90;;;;;;5036281;28;20315;-74
2021/04/26 08:14:54;;;;;;;6.88;5.70;;;14.70;58.00;;;;;;5036401;28;20209;-74
2021/04/26 08:17:20;;;;;;;6.22;5.60;;;15.60;52.30;;;;;;5036158;28;20202;-74
2021/04/26 08:19:47;;;;;;;7.25;6.20;;;15.70;50.80;;;;;;5036283;28;20219;-73
2021/04/26 08:22:13;;;;;;;8.13;6.53;;;14.90;51.30;;;;;;5035945;28;20769;-74
2021/04/26 08:24:42;;;;;;;6.47;5.75;;;14.40;51.80;;;;;;5035977;28;20670;-73
2021/04/26 08:27:08;;;;;;;5.95;5.35;;;14.40;52.60;;;;;;5035688;28;20658;-73
2021/04/26 08:29:34;;;;;;;6.65;5.95;;;13.90;52.40;;;;;;5036137;28;20307;-73
2021/04/26 08:32:01;;;;;;;6.35;5.65;;;13.40;54.00;;;;;;5035622;28;20299;-73
2021/04/26 08:34:27;;;;;;;8.77;5.97;;;13.40;54.20;;;;;;5036143;28;20302;-73
2021/04/26 08:36:53;;;;;;;7.70;6.22;;;13.40;53.60;;;;;;5035851;28;20232;-73
2021/04/26 08:39:20;;;;;;;6.32;5.72;;;13.30;54.80;;;;;;5035942;28;20650;-73
2021/04/26 08:41:47;;;;;;;8.85;6.10;;;13.10;55.80;;;;;;5035737;28;20689;-74
2021/04/26 08:44:13;;;;;;;9.20;5.85;;;13.10;55.40;;;;;;5035800;28;20220;-73
2021/04/26 08:46:43;;;;;;;7.53;6.30;;;13.30;55.70;;;;;;5035629;28;20206;-73
2021/04/26 08:49:10;;;;;;;6.40;5.50;;;13.70;54.20;;;;;;5035731;28;20211;-74
2021/04/26 08:51:38;;;;;;;8.73;6.10;;;13.90;54.20;;;;;;5035680;28;20277;-73
2021/04/26 08:54:06;;;;;;;7.57;6.25;;;14.50;53.30;;;;;;5035392;28;20270;-74
2021/04/26 08:56:32;;;;;;;8.35;5.97;;;14.50;51.90;;;;;;5035176;28;20204;-73
2021/04/26 08:59:00;;;;;;;9.63;6.32;;;14.70;52.80;;;;;;5035611;28;20216;-73
2021/04/26 09:01:26;;;;;;;6.15;5.50;;;15.50;51.00;;;;;;5035504;28;20587;-74
2021/04/26 09:03:52;;;;;;;8.68;6.25;;;16.40;50.80;;;;;;5035195;28;20310;-72
2021/04/26 09:06:19;;;;;;;6.45;5.65;;;18.00;48.20;;;;;;5034973;28;20282;-74
2021/04/26 09:08:50;;;;;;;6.10;5.20;;;20.00;44.70;;;;;;5035314;28;20298;-72
2021/04/26 09:11:17;;;;;;;7.43;6.23;;;21.40;41.40;;;;;;5035090;28;20442;-72
2021/04/26 09:13:45;;;;;;;7.70;6.20;;;22.70;37.40;;;;;;5035314;28;20549;-72
2021/04/26 09:16:19;;;;;;;7.90;6.30;;;23.30;37.00;;;;;;5035051;28;20453;-72
2021/04/26 09:19:04;;;;;;;6.47;5.60;;;24.60;36.20;;;;;;5034932;28;20949;-73
2021/04/26 09:21:32;;;;;;;8.50;5.67;;;26.90;33.10;;;;;;5035000;28;20474;-73
2021/04/26 09:24:17;;;;;;;7.70;5.43;;;27.40;30.00;;;;;;5035124;28;20462;-73
2021/04/26 09:26:45;;;;;;;6.20;5.60;;;28.00;30.00;;;;;;5034656;28;20446;-72
2021/04/26 09:29:23;;;;;;;6.30;5.20;;;27.40;28.90;;;;;;5034998;28;20529;-73
2021/04/26 09:32:04;;;;;;;5.87;5.20;;;28.20;28.60;;;;;;5034591;28;20458;-73
2021/04/26 09:34:32;;;;;;;6.30;5.70;;;27.30;28.80;;;;;;5034669;28;20976;-72
2021/04/26 09:37:11;;;;;;;7.00;6.30;;;27.10;29.10;;;;;;5034687;28;20439;-73
2021/04/26 09:39:57;;;;;;;6.07;5.40;;;27.60;29.10;;;;;;5034834;28;20481;-73
2021/04/26 09:42:41;;;;;;;7.00;5.70;;;27.10;28.50;;;;;;5034688;28;20581;-73
2021/04/26 09:45:17;;;;;;;10.23;6.07;;;27.20;29.10;;;;;;5034518;28;20537;-73
2021/04/26 09:47:44;;;;;;;7.40;5.17;;;26.70;29.10;;;;;;5034647;28;20454;-72
2021/04/26 09:50:11;;;;;;;6.53;5.80;;;27.00;30.00;;;;;;5034644;28;20927;-73
2021/04/26 09:52:37;;;;;;;8.07;7.27;;;28.20;28.30;;;;;;5034429;28;20505;-73
2021/04/26 09:55:04;;;;;;;6.70;6.03;;;29.30;28.10;;;;;;5034521;28;20877;-73
2021/04/26 09:57:31;;;;;;;7.27;6.67;;;26.50;28.80;;;;;;5034251;28;20529;-72
2021/04/26 09:59:58;;;;;;;6.50;5.90;;;26.60;29.50;;;;;;5034371;28;20530;-73
2021/04/26 10:02:25;;;;;;;7.60;7.00;;;26.30;29.70;;;;;;5034237;28;20585;-73
2021/04/26 10:04:53;;;;;;;8.90;6.90;;;27.40;29.40;;;;;;5034404;28;20450;-73
2021/04/26 10:07:20;;;;;;;6.60;5.90;;;26.80;29.00;;;;;;5033766;28;20600;-72
2021/04/26 10:09:48;;;;;;;5.83;5.30;;;26.80;28.40;;;;;;5034208;28;20443;-73
2021/04/26 10:12:14;;;;;;;7.07;5.30;;;27.50;29.20;;;;;;5034064;28;20476;-73
2021/04/26 10:14:42;;;;;;;7.30;5.70;;;28.70;28.10;;;;;;5034187;28;20502;-73
2021/04/26 10:17:11;;;;;;;6.10;5.50;;;29.30;26.90;;;;;;5033645;28;20538;-73
2021/04/26 10:19:44;;;;;;;6.00;5.50;;;30.50;26.90;;;;;;5033797;28;20581;-73
2021/04/26 10:22:12;;;;;;;5.70;5.20;;;31.70;25.80;;;;;;5033704;28;20481;-73
2021/04/26 10:24:51;;;;;;;6.13;5.60;;;32.80;24.80;;;;;;5033987;28;20462;-73
2021/04/26 10:27:29;;;;;;;6.40;5.80;;;32.20;23.50;;;;;;5033823;28;20515;-73
2021/04/26 10:30:01;;;;;;;10.13;6.20;;;30.10;24.80;;;;;;5033902;28;20871;-73
2021/04/26 10:32:28;;;;;;;6.97;5.93;;;29.10;26.90;;;;;;5033361;28;21000;-73
2021/04/26 10:35:11;;;;;;;5.80;5.20;;;29.50;27.00;;;;;;5033805;28;20831;-73
2021/04/26 10:37:39;;;;;;;6.57;5.90;;;29.00;26.90;;;;;;5033615;28;20446;-73
2021/04/26 10:40:09;;;;;;;6.73;6.13;;;28.90;27.10;;;;;;5033723;28;20447;-73
2021/04/26 10:42:38;;;;;;;8.03;6.10;;;28.80;26.60;;;;;;5033634;28;20540;-73
2021/04/26 10:45:19;;;;;;;5.60;5.10;;;28.20;27.00;;;;;;5033473;28;20450;-73
2021/04/26 10:47:47;;;;;;;6.80;6.20;;;28.70;27.90;;;;;;5033679;28;20538;-73
2021/04/26 10:50:36;;;;;;;7.00;5.87;;;28.30;27.50;;;;;;5033543;28;20469;-73
2021/04/26 10:53:05;;;;;;;8.20;6.17;;;26.80;29.00;;;;;;5033522;28;20996;-73
2021/04/26 10:55:51;;;;;;;6.60;6.00;;;26.90;28.30;;;;;;5033377;28;20446;-72
2021/04/26 10:58:27;;;;;;;7.50;6.27;;;26.50;29.40;;;;;;5033594;28;20525;-72
2021/04/26 11:00:54;;;;;;;6.70;5.50;;;26.10;29.40;;;;;;5033591;28;20445;-73
2021/04/26 11:03:35;;;;;;;6.93;6.23;;;26.10;29.80;;;;;;5033451;28;20506;-72
2021/04/26 11:06:30;;;;;;;6.30;5.80;;;25.50;29.90;;;;;;5033117;28;20920;-72
2021/04/26 11:09:13;;;;;;;6.73;6.13;;;24.70;31.20;;;;;;5033537;28;20893;-73
2021/04/26 11:11:49;;;;;;;5.67;5.17;;;25.20;30.60;;;;;;5033291;28;20562;-73
2021/04/26 11:14:25;;;;;;;10.07;5.83;;;24.80;31.70;;;;;;5033394;28;20470;-72
2021/04/26 11:17:04;;;;;;;7.00;6.17;;;24.60;31.20;;;;;;5033289;28;20468;-72
2021/04/26 11:19:32;;;;;;;6.70;6.10;;;23.90;31.20;;;;;;5033272;28;20447;-72
2021/04/26 11:22:00;;;;;;;8.03;5.90;;;23.00;33.20;;;;;;5033268;28;20470;-72
2021/04/26 11:25:02;;;;;;;7.50;6.38;;;22.30;34.10;;;;;;5032867;28;20437;-72
2021/04/26 11:27:29;;;;;;;9.40;6.10;;;21.50;35.00;;;;;;5033007;28;20296;-71
2021/04/26 11:30:19;;;;;;;6.23;5.63;;;20.90;36.60;;;;;;5034184;28;21009;-72
2021/04/26 11:33:03;;;;;;;7.53;6.23;;;20.50;36.10;;;;;;5036873;28;20555;-73
2021/04/26 11:35:32;;;;;;;6.43;5.65;;;20.00;35.70;;;;;;5036972;28;20522;-73
2021/04/26 11:37:59;;;;;;;6.38;5.55;;;19.70;37.40;;;;;;5037059;28;20215;-73
2021/04/26 11:40:28;;;;;;;6.13;5.53;;;19.70;37.90;;;;;;5037021;28;20236;-73
2021/04/26 11:43:03;;;;;;;6.25;5.65;;;19.70;38.30;;;;;;5037287;28;20270;-73
2021/04/26 11:45:29;;;;;;;5.47;4.93;;;19.50;38.60;;;;;;5036768;28;20290;-73
2021/04/26 11:47:55;;;;;;;7.18;5.65;;;19.50;38.70;;;;;;5036951;28;20231;-73
2021/04/26 11:50:22;;;;;;;6.15;5.20;;;19.70;38.20;;;;;;5036808;28;20300;-73
2021/04/26 11:52:48;;;;;;;6.28;5.68;;;19.80;39.30;;;;;;5036659;28;20231;-73
2021/04/26 11:55:17;;;;;;;5.38;4.88;;;19.80;38.70;;;;;;5036841;28;20622;-73
2021/04/26 11:57:50;;;;;;;6.10;5.50;;;19.80;38.00;;;;;;5036682;28;20227;-73
2021/04/26 12:00:18;;;;;;;6.30;5.70;;;19.90;38.10;;;;;;5036711;28;20210;-73
2021/04/26 12:02:48;;;;;;;5.85;5.35;;;20.00;37.10;;;;;;5035983;28;20227;-73
2021/04/26 12:05:17;;;;;;;7.67;5.90;;;20.00;37.10;;;;;;5036409;28;20208;-73
2021/04/26 12:07:45;;;;;;;5.72;5.05;;;20.00;37.40;;;;;;5035922;28;20881;-73
2021/04/26 12:10:14;;;;;;;6.28;5.68;;;19.80;37.90;;;;;;5035880;28;20231;-73
2021/04/26 12:12:41;;;;;;;5.57;5.07;;;19.60;37.00;;;;;;5035845;28;20310;-73
2021/04/26 12:15:11;;;;;;;5.90;5.30;;;19.40;37.70;;;;;;5035893;28;20651;-73
2021/04/26 12:17:39;;;;;;;6.55;5.75;;;19.40;37.60;;;;;;5035890;28;20291;-73
2021/04/26 12:20:13;;;;;;;9.55;5.25;;;19.10;36.70;;;;;;5036240;28;20295;-73
2021/04/26 12:22:40;;;;;;;6.38;5.00;;;19.00;37.90;;;;;;5036687;28;20226;-73
2021/04/26 12:25:08;;;;;;;6.50;5.25;;;19.00;37.70;;;;;;5035989;28;20211;-73
2021/04/26 12:27:35;;;;;;;7.13;5.40;;;18.90;37.70;;;;;;5036045;28;20314;-73
2021/04/26 12:30:15;;;;;;;6.15;5.53;;;18.50;37.00;;;;;;5036191;28;20661;-73
2021/04/26 12:32:42;;;;;;;6.70;5.00;;;18.30;38.80;;;;;;5035647;28;20234;-74
2021/04/26 12:35:10;;;;;;;5.45;4.68;;;18.40;38.60;;;;;;5036002;28;20549;-73
2021/04/26 12:37:38;;;;;;;5.57;4.97;;;18.20;38.90;;;;;;5035837;28;20219;-73
2021/04/26 12:40:20;;;;;;;6.95;5.65;;;18.30;38.90;;;;;;5035603;28;20204;-73
2021/04/26 12:42:50;;;;;;;4.82;4.32;;;18.00;38.00;;;;;;5036132;28;20243;-73
2021/04/26 12:45:22;;;;;;;5.35;4.30;;;18.30;39.50;;;;;;5035871;28;20291;-73
2021/04/26 12:47:53;;;;;;;5.53;3.90;;;18.70;38.00;;;;;;5036487;28;20193;-73
2021/04/26 12:50:27;;;;;;;5.03;4.50;;;19.10;37.70;;;;;;5035597;28;20205;-73
2021/04/26 12:53:05;;;;;;;4.90;3.90;;;19.50;36.70;;;;;;5035408;28;20350;-73
2021/04/26 12:55:32;;;;;;;6.00;4.90;;;19.80;36.80;;;;;;5035567;28;20432;-73
2021/04/26 12:58:10;;;;;;;5.30;4.40;;;19.90;35.90;;;;;;5035501;28;21006;-73
2021/04/26 13:00:40;;;;;;;4.83;4.27;;;20.00;35.60;;;;;;5035551;28;20443;-73
2021/04/26 13:03:38;;;;;;;4.43;4.03;;;20.00;35.80;;;;;;5035514;28;20907;-73